Mestre Joao Rico — CURN — position and weather

sailwx.info

Track history (hours):
 
Tides and Currents Weather Stations Pressure Air Temp Water Temp Dewpoint Dewpoint Depression Visibility Wind Speed Wind Dir Waves Ship Positions

Mestre Joao Rico

Last reported at 2017-Nov-15 20:56 UTC. Time now 2017-Nov-18 10:20 UTC.
Position N 36°48' W 008°27'.

Length 24 m.

Type: Fishing. MMSI: 263462000.

Date/timePositionNaut miles runAvg speedWind from/ knotsBaromVisibWave heightAir tempDewpointWater temp
2017-Nov-15 20:56N 36°48' W 008°27'5 0.2
2017-Nov-14 23:51N 36°53' W 008°27'1 3.5
2017-Nov-14 23:30N 36°54' W 008°28'  
2017-Nov-11 15:52N 36°47' W 008°43'  
2017-Nov-07 22:37N 37°02' W 008°34'110.1
2017-Nov-07 22:30N 37°03' W 008°33'5 9.3
2017-Nov-07 21:59N 37°08' W 008°32'0 0.1
2017-Nov-07 21:28N 37°08' W 008°32'0 0.0
2017-Nov-07 21:00N 37°08' W 008°32'0 0.0
2017-Nov-07 20:30N 37°08' W 008°32'3 5.2
2017-Nov-07 20:00N 37°05' W 008°32'5 9.9
2017-Nov-07 19:30N 37°01' W 008°35'5 9.8
2017-Nov-07 19:00N 36°57' W 008°37'5 9.8
2017-Nov-07 18:30N 36°52' W 008°40'  
Track history (hours):
 
Tides and Currents Weather Stations Pressure Air Temp Water Temp Dewpoint Dewpoint Depression Visibility Wind Speed Wind Dir Waves Ship Positions

Mestre Joao Rico

Last reported at 2017-Nov-15 20:56 UTC. Time now 2017-Nov-18 10:20 UTC.
Position N 36°48' W 008°27'.

Length 24 m.

Type: Fishing. MMSI: 263462000.

Date/timePositionNaut miles runAvg speedWind from/ knotsBaromVisibWave heightAir tempDewpointWater temp
2017-Nov-15 20:56N 36°48' W 008°27'5 0.2
2017-Nov-14 23:51N 36°53' W 008°27'1 3.5
2017-Nov-14 23:30N 36°54' W 008°28'  
2017-Nov-11 15:52N 36°47' W 008°43'  
2017-Nov-07 22:37N 37°02' W 008°34'110.1
2017-Nov-07 22:30N 37°03' W 008°33'5 9.3
2017-Nov-07 21:59N 37°08' W 008°32'0 0.1
2017-Nov-07 21:28N 37°08' W 008°32'0 0.0
2017-Nov-07 21:00N 37°08' W 008°32'0 0.0
2017-Nov-07 20:30N 37°08' W 008°32'3 5.2
2017-Nov-07 20:00N 37°05' W 008°32'5 9.9
2017-Nov-07 19:30N 37°01' W 008°35'5 9.8
2017-Nov-07 19:00N 36°57' W 008°37'5 9.8
2017-Nov-07 18:30N 36°52' W 008°40'  

Dump ship's entire track history